createdAt,value
2023-02-19T00:01:22.456Z,3.90
2023-02-19T00:03:56.754Z,3.70
2023-02-19T00:06:31.457Z,4.10
2023-02-19T00:09:05.345Z,3.60
2023-02-19T00:11:40.814Z,4.50
2023-02-19T00:14:16.638Z,4.20
2023-02-19T00:16:50.084Z,4.30
2023-02-19T00:19:23.713Z,5.00
2023-02-19T00:21:57.092Z,5.30
2023-02-19T00:24:29.914Z,4.90
2023-02-19T00:27:03.173Z,5.20
2023-02-19T00:29:36.240Z,5.80
2023-02-19T00:32:09.910Z,4.30
2023-02-19T00:34:43.315Z,5.40
2023-02-19T00:37:15.976Z,5.30
2023-02-19T00:39:49.288Z,5.40
2023-02-19T00:42:22.997Z,4.70
2023-02-19T00:44:55.741Z,5.00
2023-02-19T00:47:28.597Z,4.90
2023-02-19T00:50:01.317Z,7.30
2023-02-19T00:52:34.402Z,4.30
2023-02-19T00:55:07.939Z,5.90
2023-02-19T00:57:40.905Z,5.30
2023-02-19T01:00:17.020Z,6.30
2023-02-19T01:02:49.897Z,5.70
2023-02-19T01:05:22.723Z,5.40
2023-02-19T01:07:55.734Z,6.30
2023-02-19T01:10:28.799Z,6.00
2023-02-19T01:13:01.621Z,6.40
2023-02-19T01:15:36.301Z,5.20
2023-02-19T01:18:09.597Z,4.60
2023-02-19T01:20:44.392Z,5.20
2023-02-19T01:23:18.253Z,5.10
2023-02-19T01:25:50.876Z,6.00
2023-02-19T01:28:23.992Z,6.30
2023-02-19T01:30:56.794Z,5.80
2023-02-19T01:33:29.979Z,5.40
2023-02-19T01:36:04.938Z,4.40
2023-02-19T01:38:37.834Z,4.30
2023-02-19T01:41:13.450Z,5.20
2023-02-19T01:44:08.294Z,5.40
2023-02-19T01:46:43.185Z,5.60
2023-02-19T01:49:21.095Z,5.90
2023-02-19T01:52:01.119Z,5.10
2023-02-19T01:54:38.361Z,5.10
2023-02-19T01:57:15.598Z,4.50
2023-02-19T01:59:51.414Z,3.70
2023-02-19T02:02:25.529Z,4.50
2023-02-19T02:05:00.617Z,5.20
2023-02-19T02:07:50.322Z,4.00
2023-02-19T02:10:23.335Z,3.60
2023-02-19T02:13:00.797Z,3.70
2023-02-19T02:15:42.196Z,3.90
2023-02-19T02:18:24.839Z,4.10
2023-02-19T02:21:13.824Z,5.70
2023-02-19T02:24:08.698Z,3.60
2023-02-19T02:27:00.528Z,3.50
2023-02-19T02:30:04.142Z,3.50
2023-02-19T02:32:42.440Z,5.10
2023-02-19T02:35:20.628Z,3.70
2023-02-19T02:37:57.121Z,2.60
2023-02-19T02:40:30.919Z,3.80
2023-02-19T02:43:05.479Z,3.10
2023-02-19T02:45:40.406Z,4.50
2023-02-19T02:48:43.470Z,5.50
2023-02-19T02:51:23.318Z,2.80
2023-02-19T02:54:41.637Z,4.70
2023-02-19T02:57:19.002Z,3.00
2023-02-19T02:59:55.437Z,3.00
2023-02-19T03:02:31.979Z,3.90
2023-02-19T03:05:40.265Z,3.30
2023-02-19T03:08:16.522Z,4.20
2023-02-19T03:10:53.657Z,3.10
2023-02-19T03:13:56.868Z,2.70
2023-02-19T03:16:52.769Z,2.70
2023-02-19T03:19:27.528Z,2.80
2023-02-19T03:22:10.576Z,3.40
2023-02-19T03:25:04.635Z,4.00
2023-02-19T03:27:40.755Z,4.20
2023-02-19T03:30:18.563Z,4.20
2023-02-19T03:32:56.534Z,3.40
2023-02-19T03:35:32.783Z,4.10
2023-02-19T03:38:11.083Z,4.60
2023-02-19T03:40:53.434Z,3.50
2023-02-19T03:43:34.753Z,4.20
2023-02-19T03:46:15.716Z,3.40
2023-02-19T03:48:53.944Z,3.50
2023-02-19T03:51:39.463Z,4.00
2023-02-19T03:54:20.297Z,3.40
2023-02-19T03:57:00.161Z,4.20
2023-02-19T03:59:40.426Z,4.40
2023-02-19T04:02:15.898Z,3.50
2023-02-19T04:04:56.906Z,3.70
2023-02-19T04:07:35.367Z,3.40
2023-02-19T04:10:11.105Z,4.60
2023-02-19T04:12:55.199Z,3.40
2023-02-19T04:15:33.883Z,2.90
2023-02-19T04:18:10.880Z,2.90
2023-02-19T04:20:47.241Z,3.70
2023-02-19T04:23:22.601Z,4.10
2023-02-19T04:25:59.712Z,3.30
2023-02-19T04:28:33.919Z,4.20
2023-02-19T04:31:07.475Z,3.30
2023-02-19T04:33:40.697Z,4.40
2023-02-19T04:36:14.324Z,3.60
2023-02-19T04:41:18.879Z,4.30
2023-02-19T04:46:23.394Z,5.40
2023-02-19T04:48:56.013Z,3.20
2023-02-19T04:51:29.106Z,6.10
2023-02-19T04:54:01.933Z,5.70
2023-02-19T04:56:34.993Z,4.50
2023-02-19T04:59:07.680Z,4.90
2023-02-19T05:01:40.597Z,5.40
2023-02-19T05:04:13.261Z,6.40
2023-02-19T05:06:46.033Z,3.10
2023-02-19T05:09:18.614Z,5.10
2023-02-19T05:11:51.596Z,4.20
2023-02-19T05:14:24.354Z,4.90
2023-02-19T05:16:57.272Z,4.80
2023-02-19T05:19:30.052Z,6.50
2023-02-19T05:22:04.537Z,5.20
2023-02-19T05:24:37.278Z,9.30
2023-02-19T05:27:10.260Z,6.30
2023-02-19T05:29:43.474Z,7.30
2023-02-19T05:32:16.285Z,8.00
2023-02-19T05:34:49.773Z,5.90
2023-02-19T05:39:54.133Z,7.70
2023-02-19T05:42:27.037Z,7.70
2023-02-19T05:44:59.657Z,5.90
2023-02-19T05:47:32.556Z,6.30
2023-02-19T05:50:05.856Z,5.60
2023-02-19T05:52:40.113Z,7.40
2023-02-19T05:55:13.633Z,8.70
2023-02-19T06:00:21.079Z,9.50
2023-02-19T06:02:54.374Z,9.20
2023-02-19T06:05:27.160Z,10.90
2023-02-19T06:07:59.953Z,7.00
2023-02-19T06:10:33.116Z,10.20
2023-02-19T06:13:07.613Z,4.90
2023-02-19T06:15:41.015Z,4.70
2023-02-19T06:18:13.873Z,3.10
2023-02-19T06:20:46.497Z,2.40
2023-02-19T06:23:19.453Z,5.50
2023-02-19T06:25:52.254Z,3.20
2023-02-19T06:28:25.476Z,2.80
2023-02-19T06:30:59.957Z,5.10
2023-02-19T06:33:33.556Z,4.60
2023-02-19T06:36:07.307Z,3.30
2023-02-19T06:38:40.317Z,5.10
2023-02-19T06:41:14.311Z,3.90
2023-02-19T06:43:49.143Z,4.80
2023-02-19T06:46:21.967Z,4.00
2023-02-19T06:48:55.194Z,4.00
2023-02-19T06:51:30.004Z,4.50
2023-02-19T06:54:04.041Z,5.20
2023-02-19T06:56:38.743Z,5.70
2023-02-19T06:59:17.601Z,5.50
2023-02-19T07:01:50.567Z,5.10
2023-02-19T07:04:26.304Z,5.00
2023-02-19T07:07:00.740Z,7.20
2023-02-19T07:09:34.177Z,6.50
2023-02-19T07:12:07.519Z,7.70
2023-02-19T07:14:40.255Z,7.40
2023-02-19T07:17:12.974Z,9.80
2023-02-19T07:19:46.154Z,8.70
2023-02-19T07:22:18.973Z,9.70
2023-02-19T07:24:51.976Z,9.20
2023-02-19T07:27:24.818Z,16.50
2023-02-19T07:29:57.746Z,17.70
2023-02-19T07:32:31.259Z,10.60
2023-02-19T07:35:04.401Z,10.00
2023-02-19T07:37:39.698Z,10.50
2023-02-19T07:40:13.549Z,10.10
2023-02-19T07:42:46.837Z,12.60
2023-02-19T07:45:19.797Z,12.00
2023-02-19T07:47:53.396Z,9.40
2023-02-19T07:50:26.941Z,8.80
2023-02-19T07:53:00.356Z,9.30
2023-02-19T07:55:35.193Z,8.80
2023-02-19T07:58:07.900Z,9.10
2023-02-19T08:00:40.618Z,8.50
2023-02-19T08:05:40.946Z,8.50
2023-02-19T08:09:05.166Z,2.40
2023-02-19T08:11:56.570Z,2.40
2023-02-19T08:14:30.842Z,2.00
2023-02-19T08:19:16.273Z,2.00
2023-02-19T08:22:29.298Z,2.30
2023-02-19T08:25:02.214Z,1.20
2023-02-19T08:27:36.656Z,23.40
2023-02-19T08:30:11.138Z,4.10
2023-02-19T08:32:44.137Z,2.30
2023-02-19T08:35:16.960Z,5.60
2023-02-19T08:37:49.816Z,2.30
2023-02-19T08:40:22.780Z,33.60
2023-02-19T08:43:03.638Z,41.40
2023-02-19T08:45:37.038Z,16.00
2023-02-19T08:48:10.814Z,37.90
2023-02-19T08:50:45.296Z,59.90
2023-02-19T08:53:18.133Z,48.80
2023-02-19T08:55:51.001Z,14.30
2023-02-19T08:58:26.541Z,17.00
2023-02-19T09:01:00.997Z,12.30
2023-02-19T09:03:33.912Z,10.10
2023-02-19T09:06:07.343Z,5.10
2023-02-19T09:08:40.238Z,2.80
2023-02-19T09:11:13.349Z,6.90
2023-02-19T09:13:46.312Z,6.20
2023-02-19T09:16:21.354Z,3.90
2023-02-19T09:18:57.279Z,5.40
2023-02-19T09:21:33.296Z,3.90
2023-02-19T09:24:10.489Z,4.00
2023-02-19T09:26:43.616Z,3.70
2023-02-19T09:29:18.517Z,5.30
2023-02-19T09:31:51.691Z,4.70
2023-02-19T09:34:25.084Z,4.00
2023-02-19T09:36:58.137Z,3.50
2023-02-19T09:39:31.197Z,3.00
2023-02-19T09:42:22.078Z,4.30
2023-02-19T09:44:57.078Z,3.40
2023-02-19T09:47:32.218Z,3.70
2023-02-19T09:50:09.064Z,4.00
2023-02-19T09:52:45.597Z,5.10
2023-02-19T09:55:25.879Z,3.10
2023-02-19T09:58:01.175Z,5.90
2023-02-19T10:00:37.776Z,3.10
2023-02-19T10:03:18.142Z,2.70
2023-02-19T10:05:51.575Z,3.70
2023-02-19T10:08:24.772Z,8.30
2023-02-19T10:10:58.118Z,5.70
2023-02-19T10:13:34.740Z,4.20
2023-02-19T10:16:11.849Z,3.50
2023-02-19T10:18:47.212Z,4.00
2023-02-19T10:21:24.512Z,4.30
2023-02-19T10:24:01.540Z,3.10
2023-02-19T10:26:37.544Z,6.10
2023-02-19T10:29:11.475Z,5.10
2023-02-19T10:31:44.360Z,4.40
2023-02-19T10:34:23.653Z,4.60
2023-02-19T10:39:23.975Z,4.60
2023-02-19T10:42:27.189Z,4.60
2023-02-19T10:45:04.575Z,5.00
2023-02-19T10:47:37.563Z,5.50
2023-02-19T10:50:19.085Z,7.60
2023-02-19T10:52:57.455Z,5.30
2023-02-19T10:55:33.575Z,6.30
2023-02-19T10:58:27.010Z,3.70
2023-02-19T11:01:22.993Z,4.80
2023-02-19T11:04:18.136Z,6.20
2023-02-19T11:06:59.482Z,4.20
2023-02-19T11:09:42.979Z,2.90
2023-02-19T11:12:29.816Z,7.60
2023-02-19T11:15:22.124Z,5.70
2023-02-19T11:18:21.832Z,3.90
2023-02-19T11:21:02.767Z,3.60
2023-02-19T11:23:47.394Z,3.80
2023-02-19T11:26:24.599Z,6.20
2023-02-19T11:29:01.956Z,5.80
2023-02-19T11:31:38.098Z,3.60
2023-02-19T11:34:30.956Z,4.40
2023-02-19T11:37:17.857Z,3.30
2023-02-19T11:39:54.103Z,4.30
2023-02-19T11:42:39.456Z,3.80
2023-02-19T11:45:20.520Z,4.60
2023-02-19T11:48:16.720Z,4.30
2023-02-19T11:51:00.361Z,5.40
2023-02-19T11:53:37.806Z,4.70
2023-02-19T11:56:20.738Z,4.90
2023-02-19T11:59:05.453Z,7.50
2023-02-19T12:01:58.427Z,7.20
2023-02-19T12:04:56.386Z,4.30
2023-02-19T12:07:49.976Z,6.00
2023-02-19T12:10:26.180Z,8.00
2023-02-19T12:13:16.297Z,17.80
2023-02-19T12:16:09.652Z,9.60
2023-02-19T12:18:56.577Z,19.00
2023-02-19T12:21:54.854Z,32.50
2023-02-19T12:24:46.413Z,29.30
2023-02-19T12:27:27.532Z,35.90
2023-02-19T12:30:17.649Z,25.80
2023-02-19T12:33:33.683Z,12.60
2023-02-19T12:36:17.854Z,16.60
2023-02-19T12:39:00.297Z,15.80
2023-02-19T12:41:44.114Z,26.00
2023-02-19T12:47:00.495Z,37.90
2023-02-19T12:49:49.038Z,9.40
2023-02-19T12:52:27.714Z,16.90
2023-02-19T12:55:07.437Z,6.30
2023-02-19T12:57:45.518Z,9.30
2023-02-19T13:00:34.410Z,13.90
2023-02-19T13:03:17.004Z,6.20
2023-02-19T13:05:53.246Z,16.30
2023-02-19T13:08:34.096Z,5.20
2023-02-19T13:11:12.242Z,6.50
2023-02-19T13:13:50.101Z,13.10
2023-02-19T13:16:24.239Z,65.90
2023-02-19T13:19:01.081Z,29.90
2023-02-19T13:22:09.306Z,10.70
2023-02-19T13:24:45.126Z,19.80
2023-02-19T13:27:56.874Z,11.80
2023-02-19T13:30:56.301Z,7.90
2023-02-19T13:33:42.721Z,70.80
2023-02-19T13:36:19.926Z,74.00
2023-02-19T13:38:53.863Z,93.30
2023-02-19T13:41:33.224Z,17.30
2023-02-19T13:44:09.318Z,20.00
2023-02-19T13:46:44.400Z,9.30
2023-02-19T13:49:51.038Z,34.70
2023-02-19T13:52:52.798Z,11.10
2023-02-19T13:55:53.559Z,6.90
2023-02-19T13:58:56.940Z,11.80
2023-02-19T14:02:16.635Z,7.10
2023-02-19T14:04:56.618Z,13.90
2023-02-19T14:07:53.274Z,10.00
2023-02-19T14:11:05.857Z,8.00
2023-02-19T14:14:06.914Z,8.40
2023-02-19T14:16:58.598Z,5.20
2023-02-19T14:19:55.246Z,7.40
2023-02-19T14:23:10.356Z,5.70
2023-02-19T14:25:50.178Z,7.40
2023-02-19T14:28:37.229Z,9.20
2023-02-19T14:31:21.245Z,7.80
2023-02-19T14:36:34.780Z,14.20
2023-02-19T14:39:16.274Z,10.00
2023-02-19T14:41:52.906Z,10.10
2023-02-19T14:44:28.122Z,13.70
2023-02-19T14:47:06.330Z,9.90
2023-02-19T14:49:46.322Z,10.70
2023-02-19T14:52:25.192Z,9.00
2023-02-19T14:55:01.631Z,10.10
2023-02-19T14:57:42.204Z,8.00
2023-02-19T15:00:29.525Z,11.70
2023-02-19T15:03:03.256Z,9.70
2023-02-19T15:05:38.332Z,9.20
2023-02-19T15:08:20.713Z,8.80
2023-02-19T15:10:54.152Z,10.40
2023-02-19T15:13:30.152Z,7.90
2023-02-19T15:16:08.579Z,7.90
2023-02-19T15:18:46.699Z,13.10
2023-02-19T15:21:29.276Z,11.20
2023-02-19T15:24:05.875Z,11.90
2023-02-19T15:26:42.764Z,9.60
2023-02-19T15:29:17.344Z,13.50
2023-02-19T15:31:56.365Z,13.80
2023-02-19T15:34:31.689Z,12.80
2023-02-19T15:37:09.712Z,11.50
2023-02-19T15:39:52.558Z,12.40
2023-02-19T15:42:33.493Z,10.50
2023-02-19T15:45:19.818Z,17.20
2023-02-19T15:47:59.827Z,9.90
2023-02-19T15:50:37.640Z,16.30
2023-02-19T15:53:17.364Z,9.50
2023-02-19T15:56:01.190Z,12.20
2023-02-19T15:58:40.802Z,13.90
2023-02-19T16:01:22.294Z,15.90
2023-02-19T16:03:56.980Z,15.40
2023-02-19T16:06:31.020Z,15.40
2023-02-19T16:11:44.178Z,11.40
2023-02-19T16:14:33.143Z,11.90
2023-02-19T16:17:15.144Z,9.80
2023-02-19T16:19:56.160Z,12.20
2023-02-19T16:22:33.534Z,10.90
2023-02-19T16:25:23.639Z,12.00
2023-02-19T16:27:57.838Z,9.90
2023-02-19T16:30:37.484Z,11.10
2023-02-19T16:33:38.021Z,9.90
2023-02-19T16:36:37.562Z,13.20
2023-02-19T16:39:34.318Z,10.00
2023-02-19T16:42:22.442Z,14.30
2023-02-19T16:45:07.722Z,9.40
2023-02-19T16:47:48.648Z,11.00
2023-02-19T16:50:25.740Z,12.20
2023-02-19T16:53:02.892Z,15.60
2023-02-19T16:55:36.679Z,13.60
2023-02-19T16:58:09.885Z,8.20
2023-02-19T17:00:44.758Z,14.30
2023-02-19T17:03:20.759Z,14.00
2023-02-19T17:05:54.580Z,17.10
2023-02-19T17:08:40.237Z,15.40
2023-02-19T17:11:17.562Z,18.20
2023-02-19T17:13:51.589Z,18.20
2023-02-19T17:16:27.556Z,14.90
2023-02-19T17:19:00.688Z,14.40
2023-02-19T17:21:36.000Z,13.30
2023-02-19T17:24:09.704Z,14.70
2023-02-19T17:26:44.785Z,11.30
2023-02-19T17:29:22.463Z,13.90
2023-02-19T17:31:55.535Z,13.00
2023-02-19T17:34:28.599Z,14.90
2023-02-19T17:37:01.298Z,23.80
2023-02-19T17:39:34.516Z,18.90
2023-02-19T17:42:09.535Z,36.10
2023-02-19T17:44:44.070Z,24.10
2023-02-19T17:47:22.439Z,28.20
2023-02-19T17:49:56.341Z,25.60
2023-02-19T17:52:42.034Z,20.40
2023-02-19T17:55:20.250Z,18.30
2023-02-19T17:58:02.016Z,20.50
2023-02-19T18:00:38.293Z,19.40
2023-02-19T18:03:11.497Z,17.50
2023-02-19T18:05:45.347Z,18.00
2023-02-19T18:08:20.879Z,13.60
2023-02-19T18:10:56.361Z,13.30
2023-02-19T18:13:40.366Z,17.50
2023-02-19T18:16:18.988Z,15.40
2023-02-19T18:18:55.961Z,15.30
2023-02-19T18:21:32.061Z,17.50
2023-02-19T18:24:10.440Z,21.30
2023-02-19T18:26:47.545Z,22.00
2023-02-19T18:29:27.535Z,19.00
2023-02-19T18:32:06.150Z,19.20
2023-02-19T18:34:42.430Z,18.60
2023-02-19T18:37:21.648Z,16.50
2023-02-19T18:39:59.178Z,18.20
2023-02-19T18:42:35.206Z,16.70
2023-02-19T18:45:12.078Z,16.90
2023-02-19T18:47:49.427Z,14.20
2023-02-19T18:50:23.684Z,16.00
2023-02-19T18:52:58.502Z,15.00
2023-02-19T18:55:34.396Z,14.90
2023-02-19T18:58:09.698Z,17.30
2023-02-19T19:00:44.640Z,14.50
2023-02-19T19:03:20.845Z,13.00
2023-02-19T19:05:57.219Z,17.30
2023-02-19T19:08:34.819Z,13.10
2023-02-19T19:11:11.549Z,15.40
2023-02-19T19:13:48.227Z,15.40
2023-02-19T19:16:27.684Z,12.10
2023-02-19T19:19:01.102Z,14.50
2023-02-19T19:21:37.539Z,7.80
2023-02-19T19:24:16.041Z,12.90
2023-02-19T19:26:52.409Z,13.20
2023-02-19T19:29:26.137Z,13.80
2023-02-19T19:34:32.123Z,13.80
2023-02-19T19:37:07.809Z,11.50
2023-02-19T19:39:46.642Z,15.10
2023-02-19T19:42:19.849Z,17.90
2023-02-19T19:44:54.659Z,12.80
2023-02-19T19:47:31.704Z,20.00
2023-02-19T19:50:07.012Z,32.60
2023-02-19T19:52:44.400Z,23.50
2023-02-19T19:55:18.218Z,25.40
2023-02-19T19:57:51.342Z,27.40
2023-02-19T20:00:25.339Z,26.60
2023-02-19T20:02:58.156Z,23.30
2023-02-19T20:05:31.281Z,26.60
2023-02-19T20:08:04.239Z,22.90
2023-02-19T20:10:38.008Z,23.80
2023-02-19T20:15:42.131Z,23.20
2023-02-19T20:18:15.122Z,21.30
2023-02-19T20:20:48.303Z,15.50
2023-02-19T20:23:23.326Z,19.40
2023-02-19T20:25:58.299Z,21.30
2023-02-19T20:28:30.960Z,17.70
2023-02-19T20:31:04.580Z,16.80
2023-02-19T20:36:09.656Z,20.40
2023-02-19T20:38:44.200Z,18.30
2023-02-19T20:41:17.278Z,14.70
2023-02-19T20:43:50.018Z,13.40
2023-02-19T20:46:25.090Z,15.30
2023-02-19T20:48:58.409Z,17.90
2023-02-19T20:51:31.282Z,15.40
2023-02-19T20:54:06.389Z,15.10
2023-02-19T20:56:39.225Z,18.10
2023-02-19T20:59:12.774Z,13.90
2023-02-19T21:01:49.080Z,20.90
2023-02-19T21:04:22.500Z,17.10
2023-02-19T21:06:56.478Z,19.60
2023-02-19T21:09:29.217Z,17.00
2023-02-19T21:12:02.584Z,17.40
2023-02-19T21:17:07.339Z,14.80
2023-02-19T21:19:40.524Z,11.50
2023-02-19T21:22:13.399Z,11.80
2023-02-19T21:24:49.892Z,10.40
2023-02-19T21:27:23.501Z,12.20
2023-02-19T21:29:56.438Z,15.40
2023-02-19T21:32:31.484Z,15.50
2023-02-19T21:35:04.657Z,13.00
2023-02-19T21:37:37.598Z,14.50
2023-02-19T21:40:12.641Z,13.80
2023-02-19T21:42:45.558Z,15.60
2023-02-19T21:45:18.802Z,11.50
2023-02-19T21:47:54.919Z,11.70
2023-02-19T21:50:30.423Z,10.60
2023-02-19T21:53:05.761Z,8.60
2023-02-19T21:55:41.133Z,13.40
2023-02-19T21:58:15.674Z,12.60
2023-02-19T22:00:48.325Z,11.80
2023-02-19T22:03:21.496Z,10.70
2023-02-19T22:05:54.993Z,14.90
2023-02-19T22:08:29.377Z,12.10
2023-02-19T22:11:02.233Z,15.80
2023-02-19T22:13:35.714Z,12.00
2023-02-19T22:16:09.799Z,11.50
2023-02-19T22:18:50.931Z,12.30
2023-02-19T22:21:25.654Z,16.20
2023-02-19T22:23:58.891Z,13.00
2023-02-19T22:26:34.388Z,14.10
2023-02-19T22:29:08.631Z,11.40
2023-02-19T22:31:41.922Z,9.80
2023-02-19T22:34:15.914Z,11.00
2023-02-19T22:36:48.851Z,13.40
2023-02-19T22:39:24.670Z,12.70
2023-02-19T22:41:57.338Z,15.30
2023-02-19T22:44:30.151Z,12.70
2023-02-19T22:47:03.213Z,12.10
2023-02-19T22:49:39.132Z,16.70
2023-02-19T22:52:12.716Z,13.30
2023-02-19T22:54:45.283Z,12.50
2023-02-19T22:57:18.154Z,10.00
2023-02-19T22:59:51.033Z,18.50
2023-02-19T23:02:24.073Z,12.90
2023-02-19T23:04:58.420Z,16.30
2023-02-19T23:07:31.258Z,11.50
2023-02-19T23:10:04.356Z,12.60
2023-02-19T23:12:42.162Z,11.90
2023-02-19T23:15:15.741Z,10.30
2023-02-19T23:20:19.568Z,10.00
2023-02-19T23:22:52.419Z,13.10
2023-02-19T23:25:24.918Z,12.20
2023-02-19T23:27:59.119Z,13.60
2023-02-19T23:30:31.642Z,10.70
2023-02-19T23:33:04.880Z,6.80
2023-02-19T23:35:37.878Z,11.70
2023-02-19T23:38:10.937Z,10.80
2023-02-19T23:40:44.195Z,11.20
2023-02-19T23:43:17.335Z,11.20
2023-02-19T23:45:50.175Z,8.70
2023-02-19T23:48:23.156Z,10.70
2023-02-19T23:50:55.972Z,13.40
2023-02-19T23:53:29.255Z,11.30
2023-02-19T23:56:02.114Z,12.10
2023-02-19T23:58:35.373Z,13.80
